Time;durP1;ratioP1;P1;durP2;ratioP2;P2;SDS_P1;SDS_P2;PMS_P1;PMS_P2;Temp;Humidity;BMP_temperature;BMP_pressure;BME280_temperature;BME280_humidity;BME280_pressure;Samples;Min_cycle;Max_cycle;Signal;HPM_P1;HPM_P2
2022/01/26 00:06:58;;;;;;;20.90;9.40;;;;;;;-0.19;88.78;98990.83;104654;1277;61337;-23
2022/01/26 00:09:26;;;;;;;18.60;7.80;;;;;;;-0.07;88.29;98995.84;104821;1271;75747;-24
2022/01/26 00:11:55;;;;;;;14.90;8.20;;;;;;;-0.04;87.76;98999.31;105068;1271;75965;-22
2022/01/26 00:14:24;;;;;;;13.90;7.20;;;;;;;-0.48;89.72;98993.77;104991;1271;74614;-25
2022/01/26 00:16:52;;;;;;;17.50;7.90;;;;;;;-0.41;90.14;98995.23;104919;1271;63620;-25
2022/01/26 00:19:29;;;;;;;15.60;7.60;;;;;;;-0.20;89.34;98994.46;104951;1271;61766;-24
2022/01/26 00:21:58;;;;;;;16.00;8.00;;;;;;;-0.19;89.18;98995.44;104876;1271;75582;-22
2022/01/26 00:30:01;;;;;;;15.40;7.00;;;;;;;-0.31;90.26;98994.17;104982;1271;61977;-23
2022/01/26 00:41:13;;;;;;;15.10;7.50;;;;;;;-0.43;90.62;98988.66;104610;1277;74113;-22
2022/01/26 00:43:50;;;;;;;11.40;6.10;;;;;;;-0.41;91.16;98981.41;104436;1277;61515;-23
2022/01/26 00:46:18;;;;;;;9.30;5.00;;;;;;;-0.32;90.23;98980.38;104693;1277;61685;-23
2022/01/26 00:48:49;;;;;;;15.60;7.40;;;;;;;-0.20;90.01;98979.61;104797;1277;75574;-23
2022/01/26 00:51:20;;;;;;;13.40;5.80;;;;;;;-0.39;90.63;98984.23;104595;1277;75846;-23
2022/01/26 00:54:05;;;;;;;12.60;6.30;;;;;;;-0.45;91.05;98982.77;104777;1276;74386;-23
2022/01/26 00:56:34;;;;;;;14.20;6.80;;;;;;;-0.07;89.73;98983.35;104654;1277;60952;-23
2022/01/26 00:59:03;;;;;;;10.40;5.70;;;;;;;-0.06;89.37;98986.25;104659;1277;61220;-23
2022/01/26 01:01:32;;;;;;;16.20;7.00;;;;;;;-0.04;89.33;98982.56;104731;1277;75486;-23
2022/01/26 01:04:01;;;;;;;15.30;6.10;;;;;;;-0.31;90.45;98980.02;104733;1277;75987;-23
2022/01/26 01:06:43;;;;;;;12.50;6.70;;;;;;;-0.44;90.84;98968.55;104800;1276;73843;-23
2022/01/26 01:09:11;;;;;;;14.70;6.40;;;;;;;-0.20;90.37;98969.35;104694;1277;60992;-23
2022/01/26 01:11:41;;;;;;;12.20;5.90;;;;;;;-0.04;89.39;98970.61;104706;1277;61110;-23
2022/01/26 01:14:10;;;;;;;18.90;8.00;;;;;;;-0.19;89.79;98968.14;104790;1277;75610;-22
2022/01/26 01:16:39;;;;;;;16.00;7.50;;;;;;;-0.37;91.03;98964.56;105089;1271;75955;-22
2022/01/26 01:19:17;;;;;;;13.60;6.60;;;;;;;-0.34;90.91;98963.92;105109;1271;326222;-23
2022/01/26 01:27:59;;;;;;;12.20;5.70;;;;;;;-0.12;89.98;98964.12;105397;1271;75591;-22
2022/01/26 01:32:51;;;;;;;9.60;5.60;;;;;;;-0.05;89.65;98957.86;104918;1271;72671;-22
2022/01/26 01:35:19;;;;;;;8.20;4.80;;;;;;;0.23;88.51;98959.52;104924;1271;61148;-21
2022/01/26 01:37:48;;;;;;;12.00;6.10;;;;;;;0.16;88.09;98960.98;104962;1271;60991;-21
2022/01/26 01:40:16;;;;;;;13.50;6.10;;;;;;;-0.11;89.07;98961.34;104914;1271;75593;-21
2022/01/26 01:42:45;;;;;;;10.20;4.80;;;;;;;-0.25;89.89;98963.56;104895;1271;74513;-21
2022/01/26 01:45:13;;;;;;;10.10;6.20;;;;;;;-0.19;89.93;98964.37;105004;1271;74321;-21
2022/01/26 01:47:47;;;;;;;;;;;;;;;0.25;88.38;98967.77;104992;1271;61125;-21
2022/01/26 01:50:15;;;;;;;12.40;5.70;;;;;;;0.08;88.23;98960.23;104791;1272;61048;-21
2022/01/26 01:52:44;;;;;;;10.00;4.80;;;;;;;-0.13;89.29;98962.12;104937;1272;75552;-21
2022/01/26 01:55:11;;;;;;;6.40;4.00;;;;;;;-0.21;90.22;98964.11;104901;1271;75683;-21
2022/01/26 01:57:40;;;;;;;10.10;5.80;;;;;;;-0.23;90.26;98959.76;104869;1271;73517;-21
2022/01/26 02:00:10;;;;;;;9.20;4.50;;;;;;;0.20;88.98;98960.48;104962;1271;61126;-21
2022/01/26 02:02:38;;;;;;;9.80;5.40;;;;;;;0.07;88.59;98958.39;104883;1271;61135;-22
2022/01/26 02:05:08;;;;;;;11.30;5.70;;;;;;;-0.01;89.50;98961.63;104984;1271;74044;-21
2022/01/26 02:07:36;;;;;;;9.80;4.50;;;;;;;-0.24;89.85;98956.70;104828;1272;76001;-21
2022/01/26 02:10:05;;;;;;;9.70;4.80;;;;;;;-0.15;89.86;98964.06;104985;1271;74238;-21
2022/01/26 02:12:36;;;;;;;9.10;5.10;;;;;;;0.19;89.07;98962.55;104841;1271;62049;-21
2022/01/26 02:15:13;;;;;;;9.50;4.50;;;;;;;0.03;89.06;98956.00;104878;1271;61217;-21
2022/01/26 02:17:57;;;;;;;10.80;4.90;;;;;;;0.14;88.56;98955.42;105159;1271;75640;-21
2022/01/26 02:57:30;;;;;;;7.20;4.30;;;;;;;-0.07;89.14;98973.48;104054;1284;75895;-21
2022/01/26 03:01:57;;;;;;;8.80;5.00;;;;;;;0.45;86.95;98974.48;104638;1278;61965;-21
2022/01/26 03:07:14;;;;;;;7.00;4.30;;;;;;;0.08;88.11;98974.26;104604;1281;72830;-22
2022/01/26 03:10:12;;;;;;;4.80;3.30;;;;;;;-0.21;89.17;98974.89;104688;1278;74455;-22
2022/01/26 03:13:11;;;;;;;5.80;3.10;;;;;;;0.27;87.48;98976.56;104652;1281;74421;-21
2022/01/26 03:15:47;;;;;;;6.20;3.20;;;;;;;0.40;86.35;98972.83;104610;1281;61153;-22
2022/01/26 03:20:49;;;;;;;6.10;3.40;;;;;;;-0.01;87.82;98976.15;104710;1281;73767;-21
2022/01/26 03:32:02;;;;;;;4.60;2.80;;;;;;;0.12;87.42;98969.84;104608;1281;61885;-21
2022/01/26 03:34:21;;;;;;;3.50;2.30;;;;;;;-0.03;88.17;98971.27;104620;1281;75210;-21
2022/01/26 03:36:57;;;;;;;3.40;2.30;;;;;;;0.18;87.87;98970.77;104666;1281;74006;-21
2022/01/26 03:39:26;;;;;;;4.50;2.70;;;;;;;0.59;85.17;98970.17;105164;1271;72863;-21
2022/01/26 03:42:04;;;;;;;3.50;2.40;;;;;;;0.42;85.74;98974.45;105155;1271;61813;-21
2022/01/26 03:44:32;;;;;;;3.50;2.40;;;;;;;0.21;86.74;98978.36;105155;1271;61118;-21
2022/01/26 03:47:00;;;;;;;4.90;3.10;;;;;;;0.01;87.52;98975.38;105115;1271;73445;-21
2022/01/26 03:49:30;;;;;;;3.90;2.60;;;;;;;0.03;87.81;98977.34;105034;1271;75049;-21
2022/01/26 03:51:58;;;;;;;3.90;2.40;;;;;;;0.21;86.74;98975.10;105076;1268;74290;-21
2022/01/26 03:54:27;;;;;;;4.90;3.00;;;;;;;0.16;87.23;98976.33;104933;1271;61073;-20
2022/01/26 03:56:55;;;;;;;4.40;2.70;;;;;;;0.27;86.61;98980.48;105141;1273;61239;-21
2022/01/26 03:59:23;;;;;;;3.30;2.00;;;;;;;0.05;87.42;98974.89;105101;1273;74723;-21
2022/01/26 04:01:53;;;;;;;3.00;2.40;;;;;;;0.10;87.48;98978.92;105135;1271;75985;-21
2022/01/26 04:04:21;;;;;;;4.00;2.80;;;;;;;0.50;85.53;98979.59;104966;1274;74424;-21
2022/01/26 04:06:50;;;;;;;4.10;2.40;;;;;;;0.41;85.41;98976.36;104914;1271;61078;-20
2022/01/26 04:09:19;;;;;;;2.60;1.80;;;;;;;0.22;86.19;98982.05;105144;1271;61109;-21
2022/01/26 04:11:49;;;;;;;4.00;2.50;;;;;;;0.06;86.98;98980.48;105125;1271;74749;-23
2022/01/26 04:14:22;;;;;;;3.20;1.80;;;;;;;-0.09;88.01;98983.44;105130;1271;75078;-22
2022/01/26 04:16:55;;;;;;;3.90;2.30;;;;;;;0.25;86.89;98984.67;104989;1271;72859;-24
2022/01/26 04:19:25;;;;;;;3.80;2.90;;;;;;;0.37;85.80;98980.46;105072;1271;61073;-21
2022/01/26 04:22:14;;;;;;;4.00;2.60;;;;;;;0.11;86.70;98979.59;105102;1271;62206;-22
2022/01/26 04:24:48;;;;;;;3.50;2.20;;;;;;;-0.05;87.43;98972.36;105127;1272;72517;-22
2022/01/26 04:27:23;;;;;;;2.60;1.80;;;;;;;0.29;86.16;98977.35;104924;1271;73219;-24
2022/01/26 04:29:52;;;;;;;4.10;2.00;;;;;;;0.40;85.14;98977.91;105150;1271;73015;-23
2022/01/26 04:32:20;;;;;;;3.20;2.10;;;;;;;0.23;86.03;98979.13;105100;1271;62268;-24
2022/01/26 04:34:49;;;;;;;2.40;1.80;;;;;;;0.11;86.34;98979.45;105157;1271;61064;-24
2022/01/26 04:40:11;;;;;;;2.30;1.60;;;;;;;0.24;86.32;98971.77;104779;1271;74834;-21
2022/01/26 04:42:51;;;;;;;3.70;1.50;;;;;;;0.47;84.84;98974.93;105037;1271;73439;-21
2022/01/26 04:45:20;;;;;;;2.30;1.70;;;;;;;0.30;85.35;98974.23;105093;1271;61125;-21
2022/01/26 04:47:48;;;;;;;2.20;1.30;;;;;;;0.05;86.43;98975.90;104893;1271;61106;-21
2022/01/26 04:50:17;;;;;;;1.50;1.30;;;;;;;-0.16;87.55;98977.75;104947;1271;74538;-21
2022/01/26 04:52:46;;;;;;;2.50;1.70;;;;;;;0.07;87.09;98983.19;104874;1271;76179;-21
2022/01/26 04:55:14;;;;;;;1.20;1.10;;;;;;;0.33;85.52;98975.14;104997;1271;74200;-21
2022/01/26 04:57:43;;;;;;;3.20;1.80;;;;;;;0.47;84.66;98974.77;105084;1271;61426;-21
2022/01/26 05:00:17;;;;;;;;;;;;;;;0.35;85.03;98976.24;105171;1271;61865;-21
2022/01/26 05:02:45;;;;;;;2.90;1.90;;;;;;;-0.07;86.56;98978.41;105112;1271;74879;-21
2022/01/26 05:05:14;;;;;;;2.30;1.50;;;;;;;0.04;86.74;98976.27;105109;1271;76317;-21
2022/01/26 05:07:43;;;;;;;3.00;2.20;;;;;;;0.37;84.99;98979.23;104964;1270;74319;-21
2022/01/26 05:10:12;;;;;;;2.40;1.60;;;;;;;0.45;84.33;98981.14;105146;1271;62249;-21
2022/01/26 05:12:41;;;;;;;4.80;2.60;;;;;;;0.18;85.59;98979.86;105159;1271;61788;-21
2022/01/26 05:15:10;;;;;;;2.90;1.90;;;;;;;0.08;86.02;98978.52;104997;1271;74753;-21
2022/01/26 05:17:40;;;;;;;2.20;1.50;;;;;;;0.10;85.80;98982.86;105088;1271;76142;-21
2022/01/26 05:20:10;;;;;;;2.50;1.60;;;;;;;0.31;85.55;98984.63;105146;1271;74299;-21
2022/01/26 05:22:40;;;;;;;4.00;2.50;;;;;;;0.52;84.09;98985.66;104906;1272;61121;-23
2022/01/26 05:25:09;;;;;;;1.40;1.20;;;;;;;0.10;85.91;98988.86;104889;1271;62415;-23
2022/01/26 05:27:38;;;;;;;3.90;1.90;;;;;;;-0.02;86.50;98987.78;104967;1271;73726;-23
2022/01/26 05:30:07;;;;;;;3.20;2.30;;;;;;;-0.16;87.67;98991.41;104994;1271;76478;-21
2022/01/26 05:32:36;;;;;;;2.20;1.70;;;;;;;0.15;86.60;98997.55;104663;1271;71278;-21
2022/01/26 05:35:05;;;;;;;4.10;2.30;;;;;;;0.35;85.47;98996.24;104719;1271;61227;-21
2022/01/26 05:37:33;;;;;;;2.50;2.10;;;;;;;0.14;86.22;98996.88;104859;1272;62263;-21
2022/01/26 05:40:03;;;;;;;2.90;2.20;;;;;;;0.11;86.27;98996.16;105138;1271;74193;-21
2022/01/26 05:42:34;;;;;;;3.00;2.20;;;;;;;-0.03;87.05;98991.21;105020;1271;76018;-21
2022/01/26 05:45:06;;;;;;;4.00;2.20;;;;;;;0.29;85.70;98996.30;104789;1271;72897;-22
2022/01/26 05:47:35;;;;;;;;;;;;;;;0.35;84.93;98995.73;104794;1271;61177;-21
2022/01/26 05:50:05;;;;;;;2.00;1.80;;;;;;;0.18;85.34;98995.88;104934;1271;61028;-21
2022/01/26 05:52:33;;;;;;;4.10;2.60;;;;;;;-0.02;86.06;98998.20;104863;1271;72118;-21
2022/01/26 05:55:01;;;;;;;3.30;1.80;;;;;;;-0.20;87.23;98998.35;104870;1271;75124;-21
2022/01/26 05:57:29;;;;;;;4.20;2.90;;;;;;;0.01;86.64;99003.21;104859;1271;74333;-21
2022/01/26 05:59:58;;;;;;;2.90;2.10;;;;;;;0.22;85.65;99002.58;104822;1271;62019;-21
2022/01/26 06:02:26;;;;;;;4.60;3.40;;;;;;;0.20;85.64;99008.09;104949;1271;61068;-21
2022/01/26 06:04:55;;;;;;;3.80;2.60;;;;;;;0.15;85.95;99004.56;104946;1271;72049;-21
2022/01/26 06:07:23;;;;;;;3.10;2.40;;;;;;;-0.06;86.93;99008.79;105170;1270;76010;-21
2022/01/26 06:09:52;;;;;;;2.20;1.70;;;;;;;-0.06;86.63;99011.50;105033;1271;74656;-22
2022/01/26 06:12:20;;;;;;;2.70;1.60;;;;;;;0.23;85.39;99012.27;105138;1271;62117;-23
2022/01/26 06:14:48;;;;;;;4.30;3.10;;;;;;;0.26;84.78;99013.48;104933;1271;61062;-21
2022/01/26 06:17:18;;;;;;;3.10;2.30;;;;;;;-0.01;85.67;99014.52;104998;1271;74616;-22
2022/01/26 06:19:46;;;;;;;4.50;2.50;;;;;;;-0.17;86.72;99016.70;104991;1271;73923;-23
2022/01/26 06:22:15;;;;;;;2.80;2.10;;;;;;;-0.23;87.22;99012.13;105040;1271;73462;-22
2022/01/26 06:24:44;;;;;;;6.00;3.10;;;;;;;0.21;84.98;99016.76;105060;1271;61170;-22
2022/01/26 06:27:12;;;;;;;5.30;2.00;;;;;;;0.13;85.23;99017.59;104891;1271;61074;-22
2022/01/26 06:29:40;;;;;;;4.20;2.70;;;;;;;0.23;84.80;99017.55;104898;1271;74673;-22
2022/01/26 06:32:10;;;;;;;4.80;2.70;;;;;;;0.12;85.06;99019.34;104932;1271;74988;-22
2022/01/26 06:34:40;;;;;;;4.80;2.90;;;;;;;-0.21;86.24;99016.67;104785;1271;74512;-22
2022/01/26 06:37:08;;;;;;;4.30;2.40;;;;;;;-0.07;86.34;99019.91;105139;1271;63041;-22
2022/01/26 06:39:36;;;;;;;3.10;1.70;;;;;;;0.36;84.45;99027.29;105114;1271;61045;-22
2022/01/26 06:42:12;;;;;;;4.30;2.50;;;;;;;0.33;84.31;99027.05;104933;1271;74723;-23
2022/01/26 06:45:09;;;;;;;4.50;2.30;;;;;;;0.12;85.41;99025.83;104814;1271;73340;-22
2022/01/26 06:50:20;;;;;;;3.40;2.20;;;;;;;-0.20;86.71;99027.90;104964;1271;61154;-22
2022/01/26 06:52:49;;;;;;;4.00;2.30;;;;;;;0.04;85.95;99025.80;105158;1271;61713;-22
2022/01/26 06:55:17;;;;;;;2.80;1.90;;;;;;;0.16;85.18;99028.56;105085;1271;74470;-22
2022/01/26 06:57:46;;;;;;;6.60;2.80;;;;;;;0.20;84.73;99027.06;104915;1271;75995;-22
2022/01/26 07:00:15;;;;;;;6.60;3.50;;;;;;;0.13;85.11;99034.83;104841;1271;74756;-23
2022/01/26 07:02:44;;;;;;;7.80;2.20;;;;;;;-0.11;86.03;99034.19;104772;1271;61208;-23
2022/01/26 07:05:12;;;;;;;2.40;1.70;;;;;;;-0.19;86.88;99031.61;105081;1271;61055;-23
2022/01/26 07:07:41;;;;;;;7.30;3.10;;;;;;;0.26;85.10;99039.27;105155;1270;74517;-23
2022/01/26 07:10:09;;;;;;;6.30;3.20;;;;;;;0.05;85.57;99036.31;105031;1271;75952;-23
2022/01/26 07:12:38;;;;;;;6.90;4.20;;;;;;;-0.08;86.40;99039.91;104833;1271;74095;-23
2022/01/26 07:23:28;;;;;;;5.10;3.70;;;;;;;-0.07;86.09;99061.21;105131;1271;73992;-23
2022/01/26 07:25:56;;;;;;;8.70;6.10;;;;;;;-0.40;87.36;99061.72;105099;1271;73518;-23
2022/01/26 07:28:26;;;;;;;36.10;20.10;;;;;;;-0.50;87.58;99069.75;104937;1271;61109;-23
2022/01/26 07:30:55;;;;;;;122.10;68.80;;;;;;;-0.57;86.87;99066.41;104871;1270;61745;-24
2022/01/26 07:33:23;;;;;;;38.00;23.40;;;;;;;-0.55;83.17;99067.35;104795;1271;74620;-22
2022/01/26 07:35:51;;;;;;;21.40;13.80;;;;;;;-0.53;82.01;99073.77;104854;1271;75766;-22
2022/01/26 07:38:20;;;;;;;15.70;8.30;;;;;;;-0.60;81.23;99078.44;104872;1271;73411;-23
2022/01/26 07:40:48;;;;;;;17.40;8.10;;;;;;;-0.51;81.21;99079.52;104843;1271;61156;-24
2022/01/26 07:43:16;;;;;;;47.80;20.50;;;;;;;-0.78;81.93;99080.08;104910;1271;61140;-23
2022/01/26 07:45:44;;;;;;;14.30;7.40;;;;;;;-0.85;82.34;99088.52;104872;1271;74592;-22
2022/01/26 07:48:13;;;;;;;41.20;24.40;;;;;;;-0.65;81.69;99093.65;104990;1271;75119;-23
2022/01/26 07:50:41;;;;;;;78.30;45.90;;;;;;;-0.63;81.69;99100.06;104754;1271;74177;-23
2022/01/26 07:53:14;;;;;;;15.90;10.00;;;;;;;-0.85;82.70;99099.75;104880;1271;61140;-23
2022/01/26 07:55:43;;;;;;;13.10;6.10;;;;;;;-0.97;83.66;99102.73;105133;1271;62264;-23
2022/01/26 07:58:12;;;;;;;15.90;10.20;;;;;;;-0.93;83.59;99102.74;104925;1271;74378;-24
2022/01/26 08:00:41;;;;;;;18.60;12.80;;;;;;;-0.57;81.96;99102.39;104945;1271;75780;-23
2022/01/26 08:03:09;;;;;;;21.60;14.30;;;;;;;-1.00;82.87;99095.48;105070;1271;73020;-33
2022/01/26 08:05:38;;;;;;;12.50;8.50;;;;;;;-1.06;82.95;99100.46;105128;1271;61189;-23
2022/01/26 08:08:06;;;;;;;17.90;11.50;;;;;;;-1.05;82.64;99101.27;105178;1271;62229;-23
2022/01/26 08:10:35;;;;;;;36.30;19.80;;;;;;;-1.24;83.75;99105.27;105155;1271;75667;-23
2022/01/26 08:13:03;;;;;;;27.80;14.30;;;;;;;-0.92;82.87;99115.67;104926;1271;74717;-22
2022/01/26 08:15:32;;;;;;;34.00;15.70;;;;;;;-0.65;81.21;99117.67;105034;1271;74185;-24
2022/01/26 08:18:02;;;;;;;35.90;17.60;;;;;;;-0.83;82.13;99124.09;105143;1271;61041;-23
2022/01/26 08:20:31;;;;;;;77.80;48.60;;;;;;;-0.87;81.32;99126.09;104982;1271;62007;-22
2022/01/26 08:22:59;;;;;;;22.40;15.40;;;;;;;-0.75;80.00;99128.58;104901;1270;75361;-22
2022/01/26 08:25:28;;;;;;;37.20;22.20;;;;;;;-1.35;79.25;99123.69;104912;1271;76167;-22
2022/01/26 08:28:07;;;;;;;39.40;18.70;;;;;;;-1.21;79.47;99129.39;104814;1271;74573;-22
2022/01/26 08:30:38;;;;;;;69.00;43.60;;;;;;;-1.09;78.72;99132.93;104884;1271;61266;-22
2022/01/26 08:33:06;;;;;;;33.20;19.80;;;;;;;-0.74;77.88;99137.91;104921;1270;61172;-22
2022/01/26 08:35:35;;;;;;;36.40;20.70;;;;;;;-0.24;75.53;99132.13;104910;1271;75600;-23
2022/01/26 08:38:03;;;;;;;53.00;26.70;;;;;;;-0.59;75.70;99132.63;104916;1271;76126;-22
2022/01/26 08:40:35;;;;;;;51.30;30.70;;;;;;;-0.53;77.07;99134.13;104916;1271;72618;-25
2022/01/26 08:43:04;;;;;;;49.10;24.80;;;;;;;-0.56;76.45;99133.73;104870;1271;61066;-23
2022/01/26 08:45:33;;;;;;;28.50;14.40;;;;;;;-0.69;76.03;99135.38;104918;1271;61033;-23
2022/01/26 08:48:02;;;;;;;29.20;13.40;;;;;;;-0.91;75.77;99139.66;104806;1271;75354;-23
2022/01/26 08:50:30;;;;;;;47.20;23.20;;;;;;;-1.07;76.60;99141.73;104965;1271;76090;-24
2022/01/26 08:52:59;;;;;;;200.40;101.30;;;;;;;-1.18;76.43;99144.44;104902;1270;72075;-22
2022/01/26 08:55:27;;;;;;;28.10;15.10;;;;;;;-0.58;75.30;99150.17;104936;1271;61093;-22
2022/01/26 08:57:55;;;;;;;67.40;32.80;;;;;;;-0.08;73.33;99155.41;104974;1271;61729;-23
2022/01/26 09:00:23;;;;;;;24.80;13.80;;;;;;;-0.19;72.88;99154.83;104931;1271;75475;-22
2022/01/26 09:02:53;;;;;;;75.10;44.80;;;;;;;-0.31;73.13;99153.19;104915;1271;75951;-22
2022/01/26 09:05:22;;;;;;;22.30;11.80;;;;;;;-0.21;73.07;99153.17;104884;1271;73379;-22
2022/01/26 09:07:55;;;;;;;60.40;28.20;;;;;;;-0.31;73.08;99153.70;105016;1271;61122;-22
2022/01/26 09:10:26;;;;;;;70.40;47.60;;;;;;;-0.36;73.00;99154.90;105139;1271;62180;-22
2022/01/26 09:12:55;;;;;;;25.80;13.70;;;;;;;-0.71;73.25;99149.45;104940;1271;75612;-22
2022/01/26 09:15:30;;;;;;;49.30;22.10;;;;;;;-0.75;73.56;99151.25;104977;1271;75272;-22
2022/01/26 09:18:00;;;;;;;48.10;24.30;;;;;;;-0.83;73.42;99154.40;104859;1271;72617;-22
2022/01/26 09:20:30;;;;;;;84.20;30.20;;;;;;;-0.73;72.59;99155.61;104768;1271;62804;-22
2022/01/26 09:22:58;;;;;;;71.70;37.60;;;;;;;-0.49;70.79;99159.60;105102;1271;61745;-22
2022/01/26 09:25:26;;;;;;;60.80;31.80;;;;;;;-0.13;70.27;99163.48;104904;1271;75579;-22
2022/01/26 09:27:56;;;;;;;99.10;44.30;;;;;;;-0.18;69.85;99161.96;104890;1271;76200;-22
2022/01/26 09:30:25;;;;;;;326.40;183.40;;;;;;;-0.43;69.41;99155.15;105120;1271;73425;-23
2022/01/26 09:32:53;;;;;;;22.00;12.70;;;;;;;-0.38;70.01;99159.40;105115;1271;61092;-23
2022/01/26 09:35:22;;;;;;;54.80;36.30;;;;;;;-0.38;70.89;99159.73;105161;1271;61048;-22
2022/01/26 09:37:50;;;;;;;842.10;352.20;;;;;;;-0.45;71.02;99160.50;105151;1271;75342;-22
2022/01/26 09:40:19;;;;;;;134.20;49.00;;;;;;;-0.54;70.65;99161.31;105090;1271;75805;-23
2022/01/26 09:42:49;;;;;;;1999.90;795.30;;;;;;;-0.66;71.36;99158.11;105154;1271;73510;-23
2022/01/26 09:45:18;;;;;;;557.80;178.50;;;;;;;-0.65;71.37;99157.76;105122;1271;61182;-23
2022/01/26 09:47:46;;;;;;;1831.50;556.40;;;;;;;-0.78;71.03;99152.71;105065;1271;61105;-23
2022/01/26 09:50:31;;;;;;;928.30;360.90;;;;;;;-0.80;70.89;99153.46;105036;1271;73347;-23
2022/01/26 09:53:00;;;;;;;77.60;26.00;;;;;;;-0.95;70.78;99155.13;105149;1271;74975;-23
2022/01/26 09:55:29;;;;;;;206.60;75.30;;;;;;;-0.73;70.75;99152.02;105145;1271;73341;-23
2022/01/26 09:57:58;;;;;;;313.90;141.40;;;;;;;0.18;68.76;99154.67;105039;1271;61060;-23
2022/01/26 10:00:27;;;;;;;1122.00;629.20;;;;;;;0.58;67.49;99154.71;104878;1271;61246;-25
2022/01/26 10:02:58;;;;;;;156.50;82.90;;;;;;;0.71;67.09;99151.83;105067;1271;75770;-22
2022/01/26 10:05:44;;;;;;;67.30;31.70;;;;;;;0.64;66.37;99150.73;104737;1271;74901;-23
2022/01/26 10:19:07;;;;;;;141.70;95.00;;;;;;;-0.64;69.76;99156.03;104998;1271;73440;-24
2022/01/26 10:21:50;;;;;;;67.40;37.10;;;;;;;-0.82;69.99;99157.63;104891;1271;72107;-21
2022/01/26 10:24:20;;;;;;;98.50;42.10;;;;;;;-0.64;69.50;99153.46;104968;1271;61083;-24
2022/01/26 10:26:50;;;;;;;62.40;39.40;;;;;;;-0.73;69.74;99151.02;104784;1271;61337;-25
2022/01/26 10:29:19;;;;;;;53.80;28.60;;;;;;;-0.73;69.78;99150.83;104851;1271;73581;-25
2022/01/26 10:31:47;;;;;;;80.20;38.50;;;;;;;-0.73;70.23;99153.08;104802;1271;76030;-25
2022/01/26 10:34:16;;;;;;;13.00;9.50;;;;;;;-0.79;70.97;99153.79;105132;1271;73431;-25
2022/01/26 10:36:50;;;;;;;20.80;15.60;;;;;;;-0.46;70.24;99153.34;105140;1271;61106;-26
2022/01/26 10:39:26;;;;;;;35.60;25.30;;;;;;;-0.19;69.50;99155.67;105104;1271;62008;-26
2022/01/26 10:41:56;;;;;;;10.50;4.80;;;;;;;0.01;70.06;99158.89;105017;1271;74152;-24
2022/01/26 10:44:35;;;;;;;6.90;4.10;;;;;;;-0.30;70.26;99158.59;105070;1271;76014;-27
2022/01/26 10:47:05;;;;;;;6.70;3.30;;;;;;;-0.48;70.97;99155.47;105090;1271;74511;-24
2022/01/26 10:54:55;;;;;;;9.50;4.90;;;;;;;-0.45;71.12;99145.48;105101;1272;75566;-24
2022/01/26 10:57:25;;;;;;;13.40;5.70;;;;;;;-0.41;71.07;99143.83;105135;1271;75779;-24
2022/01/26 10:59:53;;;;;;;7.00;3.10;;;;;;;-0.42;71.24;99143.33;105142;1271;74666;-22
2022/01/26 11:02:28;;;;;;;6.70;3.70;;;;;;;-0.04;69.81;99145.23;105127;1271;60977;-24
2022/01/26 11:04:57;;;;;;;18.90;13.70;;;;;;;0.62;68.03;99143.44;104962;1271;62248;-22
2022/01/26 11:07:31;;;;;;;6.20;3.10;;;;;;;0.66;67.51;99143.45;104972;1271;75697;-24
2022/01/26 11:10:02;;;;;;;10.40;3.80;;;;;;;0.43;68.44;99145.19;104686;1274;75671;-25
2022/01/26 11:12:31;;;;;;;7.50;4.00;;;;;;;0.32;68.64;99140.83;104833;1271;72010;-22
2022/01/26 11:15:08;;;;;;;136.20;62.00;;;;;;;0.17;69.95;99143.11;104858;1271;61310;-24
2022/01/26 11:17:38;;;;;;;211.70;71.30;;;;;;;0.05;69.99;99141.30;105157;1271;62017;-24
2022/01/26 11:20:34;;;;;;;99.40;29.70;;;;;;;-0.01;70.25;99140.67;105110;1271;74705;-25
2022/01/26 11:23:04;;;;;;;8.00;4.60;;;;;;;-0.11;70.64;99139.16;104783;1271;76036;-26
2022/01/26 11:25:45;;;;;;;7.80;4.00;;;;;;;-0.12;71.14;99133.58;104684;1270;74328;-25
2022/01/26 11:28:32;;;;;;;16.10;4.00;;;;;;;-0.12;70.96;99128.96;104840;1271;61211;-23
2022/01/26 11:31:04;;;;;;;188.20;97.40;;;;;;;-0.23;70.54;99134.48;104570;1274;62493;-23
2022/01/26 11:33:35;;;;;;;40.10;24.00;;;;;;;-0.30;71.07;99127.04;104746;1271;74047;-23
2022/01/26 11:36:03;;;;;;;15.80;8.50;;;;;;;-0.23;70.92;99128.14;104890;1271;74971;-24
2022/01/26 11:47:04;;;;;;;12.10;7.10;;;;;;;1.04;66.72;99120.11;105094;1271;75951;-23
2022/01/26 11:49:33;;;;;;;7.20;3.80;;;;;;;1.01;66.62;99115.59;105058;1271;75664;-23
2022/01/26 11:52:02;;;;;;;4.20;2.50;;;;;;;0.98;66.66;99115.02;104921;1271;74218;-23
2022/01/26 11:54:41;;;;;;;4.30;2.60;;;;;;;0.56;67.22;99109.52;105115;1271;61523;-23
2022/01/26 11:57:16;;;;;;;5.60;3.00;;;;;;;0.21;68.47;99105.90;105109;1271;61136;-23
2022/01/26 11:59:50;;;;;;;12.30;6.00;;;;;;;0.15;68.41;99106.63;105163;1271;75732;-23
2022/01/26 12:02:36;;;;;;;4.50;2.80;;;;;;;-0.07;69.50;99110.20;105135;1271;74799;-23
2022/01/26 12:05:08;;;;;;;6.90;3.20;;;;;;;-0.14;69.88;99116.38;105114;1271;74499;-23
2022/01/26 12:07:47;;;;;;;7.60;3.70;;;;;;;-0.21;70.60;99116.84;105070;1271;61121;-23
2022/01/26 12:10:30;;;;;;;6.00;2.60;;;;;;;-0.29;70.59;99113.02;105111;1271;61101;-23
2022/01/26 12:13:16;;;;;;;7.80;3.90;;;;;;;-0.42;70.25;99110.92;104868;1271;76961;-24
2022/01/26 12:18:29;;;;;;;4.40;2.40;;;;;;;-0.36;70.88;99116.01;104953;1271;73498;-23
2022/01/26 12:32:44;;;;;;;4.50;2.20;;;;;;;0.59;66.55;99122.71;105064;1271;73553;-24
2022/01/26 12:38:43;;;;;;;4.70;2.70;;;;;;;0.02;68.86;99123.01;104774;1271;61837;-23
2022/01/26 12:41:31;;;;;;;10.40;4.40;;;;;;;-0.17;68.97;99125.54;105097;1271;75317;-22
2022/01/26 12:44:09;;;;;;;8.60;4.40;;;;;;;-0.36;69.66;99130.50;105136;1272;75838;-22
2022/01/26 12:46:38;;;;;;;3.40;2.10;;;;;;;-0.45;69.62;99130.29;105133;1271;73179;-23
2022/01/26 12:49:13;;;;;;;3.20;2.70;;;;;;;-0.58;69.66;99125.95;105154;1271;61294;-23
2022/01/26 12:51:47;;;;;;;5.40;2.70;;;;;;;-0.62;70.18;99125.40;105155;1271;61127;-23
2022/01/26 12:54:16;;;;;;;9.40;3.60;;;;;;;-0.54;70.63;99129.25;105110;1271;73895;-22
2022/01/26 12:56:44;;;;;;;2.70;2.10;;;;;;;-0.61;71.12;99129.98;105138;1271;74726;-23
2022/01/26 12:59:16;;;;;;;3.30;2.00;;;;;;;-0.66;70.87;99133.90;105185;1271;74145;-23
2022/01/26 13:01:45;;;;;;;5.40;2.10;;;;;;;-0.26;70.10;99132.70;105116;1271;61525;-23
2022/01/26 13:04:16;;;;;;;4.50;2.30;;;;;;;0.44;68.13;99136.61;105158;1271;61047;-23
2022/01/26 13:06:52;;;;;;;4.50;2.00;;;;;;;0.52;67.22;99132.74;105057;1274;75667;-23
2022/01/26 13:09:41;;;;;;;6.20;2.80;;;;;;;0.48;66.85;99128.27;104772;1271;74952;-23
2022/01/26 13:12:10;;;;;;;5.80;1.60;;;;;;;0.04;68.25;99122.73;105142;1271;74312;-23
2022/01/26 13:14:43;;;;;;;3.00;1.90;;;;;;;0.10;69.04;99122.20;105039;1271;61141;-23
2022/01/26 13:25:10;;;;;;;2.90;1.80;;;;;;;-0.55;71.18;99120.92;105125;1271;72721;-22
2022/01/26 13:36:22;;;;;;;4.20;2.10;;;;;;;-0.12;70.33;99119.38;105005;1271;74991;-23
2022/01/26 13:52:39;;;;;;;3.30;1.40;;;;;;;-0.36;69.99;99117.54;104678;1277;74436;-22
2022/01/26 14:00:19;;;;;;;3.20;1.80;;;;;;;-0.66;71.66;99120.27;105132;1271;75605;-24
2022/01/26 14:02:51;;;;;;;4.50;1.90;;;;;;;-0.76;71.81;99117.35;105144;1271;75847;-24
2022/01/26 14:05:20;;;;;;;1.80;1.50;;;;;;;-0.83;72.66;99118.96;105132;1271;74552;-25
2022/01/26 14:07:50;;;;;;;6.00;1.50;;;;;;;-0.82;73.14;99119.77;104936;1271;61560;-23
2022/01/26 14:10:20;;;;;;;4.70;1.80;;;;;;;-0.27;71.40;99120.45;104940;1271;60984;-23
2022/01/26 14:12:49;;;;;;;3.00;1.80;;;;;;;0.27;68.81;99120.02;104956;1271;74124;-23
2022/01/26 14:15:24;;;;;;;4.60;1.70;;;;;;;0.39;68.47;99120.25;104924;1271;74550;-23
2022/01/26 14:18:05;;;;;;;2.80;1.30;;;;;;;0.34;68.37;99115.34;104903;1271;74487;-23
2022/01/26 14:25:49;;;;;;;4.90;1.60;;;;;;;-0.03;69.29;99117.70;104861;1271;75578;-23
2022/01/26 14:28:22;;;;;;;4.30;1.90;;;;;;;-0.18;69.70;99120.13;104929;1271;74958;-24
2022/01/26 15:01:01;;;;;;;42.60;21.40;;;;;;;-0.02;68.49;99122.80;104840;1271;61002;-22
2022/01/26 15:40:21;;;;;;;93.40;36.00;;;;;;;-1.77;70.03;99141.30;105040;1271;74127;-22
2022/01/26 15:51:03;;;;;;;79.20;38.90;;;;;;;-2.11;71.86;99136.98;105107;1272;76206;-25
2022/01/26 15:59:22;;;;;;;24.20;9.90;;;;;;;-2.30;71.50;99133.45;105118;1271;61259;-23